Time;durP1;ratioP1;P1;durP2;ratioP2;P2;SDS_P1;SDS_P2;PMS_P1;PMS_P2;Temp;Humidity;BMP_temperature;BMP_pressure;BME280_temperature;BME280_humidity;BME280_pressure;Samples;Min_cycle;Max_cycle;Signal;HPM_P1;HPM_P2
2023/10/10 00:00:23;;;;;;;16.30;8.07;;;;;;;;;;5028290;28;20103;-83
2023/10/10 00:02:51;;;;;;;10.90;7.88;;;;;;;;;;5030699;28;20094;-83
2023/10/10 00:05:27;;;;;;;10.45;7.60;;;;;;;;;;5028999;28;20049;-83
2023/10/10 00:07:57;;;;;;;17.15;9.00;;;;;;;;;;5019333;28;20053;-83
2023/10/10 00:10:31;;;;;;;13.70;7.68;;;;;;;;;;5019377;28;20063;-82
2023/10/10 00:13:03;;;;;;;14.45;8.90;;;;;;;;;;5034951;28;20418;-83
2023/10/10 00:15:34;;;;;;;9.50;8.00;;;;;;;;;;5045129;28;20045;-82
2023/10/10 00:18:07;;;;;;;9.80;7.40;;;;;;;;;;5027227;28;20338;-84
2023/10/10 00:20:41;;;;;;;13.80;7.80;;;;;;;;;;5019920;28;20484;-83
2023/10/10 00:23:15;;;;;;;10.52;8.35;;;;;;;;;;5045426;28;20367;-84
2023/10/10 00:25:45;;;;;;;17.25;9.65;;;;;;;;;;5048612;28;20049;-83
2023/10/10 00:28:21;;;;;;;11.73;8.35;;;;;;;;;;5029994;28;20045;-83
2023/10/10 00:30:52;;;;;;;16.17;10.55;;;;;;;;;;5027789;28;20257;-83
2023/10/10 00:33:20;;;;;;;17.05;8.85;;;;;;;;;;5029624;28;20041;-83
2023/10/10 00:35:47;;;;;;;14.43;8.27;;;;;;;;;;5049086;28;20041;-83
2023/10/10 00:38:24;;;;;;;12.35;9.18;;;;;;;;;;5030025;28;20045;-83
2023/10/10 00:40:54;;;;;;;14.25;9.30;;;;;;;;;;5030606;28;20431;-83
2023/10/10 00:43:24;;;;;;;15.90;7.95;;;;;;;;;;5040174;28;20053;-83
2023/10/10 00:45:52;;;;;;;11.65;7.88;;;;;;;;;;5024878;28;20458;-82
2023/10/10 00:48:23;;;;;;;13.02;7.85;;;;;;;;;;5024824;28;20050;-84
2023/10/10 00:50:52;;;;;;;12.45;7.88;;;;;;;;;;5023663;28;20054;-82
2023/10/10 00:53:21;;;;;;;13.65;8.27;;;;;;;;;;5025374;28;20108;-82
2023/10/10 00:55:57;;;;;;;11.73;8.75;;;;;;;;;;5027651;28;20075;-83
2023/10/10 00:58:35;;;;;;;12.00;8.13;;;;;;;;;;5025086;28;20415;-83
2023/10/10 01:01:10;;;;;;;20.27;10.02;;;;;;;;;;5022747;28;20108;-82
2023/10/10 01:03:42;;;;;;;12.93;8.25;;;;;;;;;;5015926;28;20136;-82
2023/10/10 01:06:20;;;;;;;15.63;9.45;;;;;;;;;;5022806;28;20056;-82
2023/10/10 01:11:43;;;;;;;13.85;8.63;;;;;;;;;;5018008;28;20050;-82
2023/10/10 01:14:18;;;;;;;13.02;8.43;;;;;;;;;;5023280;28;20050;-82
2023/10/10 01:16:47;;;;;;;18.48;9.63;;;;;;;;;;5026052;28;20049;-82
2023/10/10 01:19:18;;;;;;;18.17;9.50;;;;;;;;;;5024906;28;20487;-82
2023/10/10 01:21:50;;;;;;;12.63;8.63;;;;;;;;;;5022698;28;20053;-82
2023/10/10 01:24:21;;;;;;;19.17;10.77;;;;;;;;;;5025639;28;20061;-82
2023/10/10 01:26:52;;;;;;;15.23;10.75;;;;;;;;;;5026047;28;20049;-82
2023/10/10 01:29:27;;;;;;;13.10;9.13;;;;;;;;;;5024554;28;20396;-83
2023/10/10 01:31:58;;;;;;;11.88;9.48;;;;;;;;;;5022649;28;20057;-83
2023/10/10 01:34:39;;;;;;;15.38;9.88;;;;;;;;;;5025899;28;20049;-82
2023/10/10 01:37:20;;;;;;;13.60;9.95;;;;;;;;;;5025841;28;20046;-82
2023/10/10 01:39:54;;;;;;;13.50;8.95;;;;;;;;;;5022817;28;20133;-83
2023/10/10 01:42:31;;;;;;;20.48;11.23;;;;;;;;;;5024935;28;20100;-83
2023/10/10 01:45:07;;;;;;;16.10;9.75;;;;;;;;;;5025991;28;20053;-85
2023/10/10 01:47:39;;;;;;;17.88;10.13;;;;;;;;;;5014908;28;20076;-82
2023/10/10 01:50:08;;;;;;;11.27;8.80;;;;;;;;;;5022349;28;20061;-83
2023/10/10 01:52:37;;;;;;;20.02;10.38;;;;;;;;;;5023034;28;20054;-82
2023/10/10 01:55:05;;;;;;;11.88;8.43;;;;;;;;;;5023150;28;20042;-82
2023/10/10 01:57:32;;;;;;;14.52;8.75;;;;;;;;;;5014525;28;20463;-84
2023/10/10 02:00:07;;;;;;;16.40;9.63;;;;;;;;;;5022591;28;20053;-82
2023/10/10 02:02:36;;;;;;;13.30;8.75;;;;;;;;;;5014480;28;20475;-82
2023/10/10 02:05:04;;;;;;;12.40;8.82;;;;;;;;;;5021835;28;20088;-83
2023/10/10 02:07:32;;;;;;;15.45;8.88;;;;;;;;;;5014086;28;20127;-84
2023/10/10 02:12:46;;;;;;;10.57;8.05;;;;;;;;;;5012905;28;20511;-84
2023/10/10 02:15:15;;;;;;;10.50;8.45;;;;;;;;;;5024683;28;20124;-83
2023/10/10 02:17:51;;;;;;;11.90;8.60;;;;;;;;;;5023523;28;20042;-83
2023/10/10 02:22:54;;;;;;;10.30;7.95;;;;;;;;;;5030279;28;20554;-83
2023/10/10 02:27:55;;;;;;;11.00;8.30;;;;;;;;;;5025587;28;20057;-84
2023/10/10 02:30:35;;;;;;;11.48;7.82;;;;;;;;;;5027395;28;20084;-84
2023/10/10 02:35:58;;;;;;;10.43;7.38;;;;;;;;;;5019612;28;20045;-83
2023/10/10 02:38:39;;;;;;;12.25;7.72;;;;;;;;;;5026669;28;20072;-83
2023/10/10 02:46:35;;;;;;;12.23;7.82;;;;;;;;;;5027365;28;20045;-83
2023/10/10 02:49:23;;;;;;;9.38;6.85;;;;;;;;;;5025381;28;20045;-82
2023/10/10 02:51:55;;;;;;;10.50;6.80;;;;;;;;;;5019682;28;20395;-82
2023/10/10 02:56:58;;;;;;;12.80;7.05;;;;;;;;;;5031814;28;20057;-82
2023/10/10 02:59:31;;;;;;;16.30;7.47;;;;;;;;;;5027811;28;20056;-83
2023/10/10 03:02:08;;;;;;;9.32;7.38;;;;;;;;;;5028908;28;20379;-84
2023/10/10 03:07:41;;;;;;;9.95;6.97;;;;;;;;;;4946422;29;20138;-82
2023/10/10 03:12:41;;;;;;;10.15;7.22;;;;;;;;;;5030372;28;20103;-83
2023/10/10 03:17:53;;;;;;;10.75;6.88;;;;;;;;;;5029710;28;20050;-83
2023/10/10 03:28:47;;;;;;;10.88;8.13;;;;;;;;;;4989076;28;20415;-84
2023/10/10 03:36:14;;;;;;;13.82;8.57;;;;;;;;;;5045505;28;20414;-84
2023/10/10 03:38:57;;;;;;;15.75;10.43;;;;;;;;;;5032815;28;20454;-84
2023/10/10 05:23:50;;;;;;;18.33;11.05;;;;;;;;;;5044510;28;20415;-84
2023/10/10 05:26:20;;;;;;;20.23;10.25;;;;;;;;;;5034900;28;20076;-82
2023/10/10 05:28:48;;;;;;;16.05;10.32;;;;;;;;;;5035291;28;20052;-85
2023/10/10 05:31:21;;;;;;;15.90;10.25;;;;;;;;;;5051852;28;20053;-84
2023/10/10 05:33:50;;;;;;;16.15;10.43;;;;;;;;;;5031598;28;20053;-84
2023/10/10 05:36:20;;;;;;;18.40;11.77;;;;;;;;;;5031300;28;20053;-84
2023/10/10 05:38:50;;;;;;;15.70;11.88;;;;;;;;;;5037162;28;20055;-85
2023/10/10 05:41:19;;;;;;;28.42;14.13;;;;;;;;;;5034227;28;20057;-85
2023/10/10 05:43:49;;;;;;;14.50;10.35;;;;;;;;;;5029898;28;20048;-85
2023/10/10 05:46:17;;;;;;;19.83;12.80;;;;;;;;;;5033834;28;20048;-85
2023/10/10 05:48:46;;;;;;;17.85;10.93;;;;;;;;;;5033137;28;20112;-84
2023/10/10 05:51:14;;;;;;;14.77;10.45;;;;;;;;;;5034278;28;20056;-85
2023/10/10 05:53:41;;;;;;;18.38;10.68;;;;;;;;;;5033178;28;20056;-84
2023/10/10 05:56:18;;;;;;;14.00;9.85;;;;;;;;;;5032317;28;20099;-85
2023/10/10 05:58:47;;;;;;;14.70;9.90;;;;;;;;;;5029586;28;20051;-84
2023/10/10 06:01:16;;;;;;;14.70;10.32;;;;;;;;;;5027111;28;20101;-84
2023/10/10 06:03:47;;;;;;;19.40;11.05;;;;;;;;;;5033450;28;20450;-85
2023/10/10 06:06:18;;;;;;;17.50;10.60;;;;;;;;;;5032624;28;20470;-85
2023/10/10 06:08:45;;;;;;;14.88;10.60;;;;;;;;;;5044915;28;20053;-85
2023/10/10 06:11:16;;;;;;;15.73;11.02;;;;;;;;;;5035140;28;20056;-84
2023/10/10 06:13:49;;;;;;;16.58;10.95;;;;;;;;;;5038416;28;20504;-86
2023/10/10 06:16:17;;;;;;;20.35;11.48;;;;;;;;;;5032992;28;20464;-84
2023/10/10 06:18:47;;;;;;;24.10;14.60;;;;;;;;;;5028058;28;20124;-84
2023/10/10 06:21:15;;;;;;;18.15;13.32;;;;;;;;;;5030102;28;20049;-84
2023/10/10 06:23:44;;;;;;;26.48;15.35;;;;;;;;;;5038775;28;20050;-84
2023/10/10 06:26:12;;;;;;;24.90;17.20;;;;;;;;;;5042818;28;20053;-84
2023/10/10 06:28:47;;;;;;;27.77;17.38;;;;;;;;;;5053516;28;20049;-83
2023/10/10 06:31:33;;;;;;;34.33;19.38;;;;;;;;;;5028776;28;20111;-83
2023/10/10 06:34:19;;;;;;;44.97;20.58;;;;;;;;;;5034182;28;20056;-84
2023/10/10 06:36:48;;;;;;;39.38;20.33;;;;;;;;;;5019851;28;20069;-83
2023/10/10 06:48:09;;;;;;;16.17;12.27;;;;;;;;;;4953320;29;20059;-93
2023/10/10 06:50:38;;;;;;;18.27;13.02;;;;;;;;;;4946228;29;20130;-92
2023/10/10 06:53:06;;;;;;;18.60;12.95;;;;;;;;;;4944670;29;20047;-93
2023/10/10 06:55:37;;;;;;;28.40;15.70;;;;;;;;;;4946222;29;20138;-94
2023/10/10 06:58:06;;;;;;;29.48;16.98;;;;;;;;;;4945726;29;20062;-92
2023/10/10 07:00:44;;;;;;;26.92;16.63;;;;;;;;;;4945823;29;20043;-93
2023/10/10 07:03:30;;;;;;;33.47;19.95;;;;;;;;;;4937808;29;20055;-93
2023/10/10 07:05:57;;;;;;;31.35;20.90;;;;;;;;;;4947748;28;20098;-94
2023/10/10 07:08:24;;;;;;;35.80;22.77;;;;;;;;;;4949571;29;20055;-94
2023/10/10 07:10:55;;;;;;;38.72;25.27;;;;;;;;;;4949436;29;20139;-93
2023/10/10 07:13:29;;;;;;;33.78;27.00;;;;;;;;;;4949393;29;20550;-94
2023/10/10 07:15:57;;;;;;;40.53;25.65;;;;;;;;;;4945282;29;20062;-94
2023/10/10 07:18:24;;;;;;;65.13;32.55;;;;;;;;;;4941802;29;20051;-93
2023/10/10 07:21:07;;;;;;;60.85;32.17;;;;;;;;;;4949577;29;20504;-94
2023/10/10 07:23:38;;;;;;;55.40;28.10;;;;;;;;;;4942949;29;20075;-93
2023/10/10 07:26:18;;;;;;;55.83;26.10;;;;;;;;;;4949652;29;20054;-94
2023/10/10 07:28:49;;;;;;;52.45;26.60;;;;;;;;;;4949939;29;20047;-94
2023/10/10 07:31:17;;;;;;;33.75;21.20;;;;;;;;;;4949459;29;20167;-93
2023/10/10 07:34:04;;;;;;;53.33;25.83;;;;;;;;;;4949386;29;20415;-94
2023/10/10 07:36:31;;;;;;;30.13;19.38;;;;;;;;;;4950840;29;20065;-95
2023/10/10 07:42:12;;;;;;;64.25;34.65;;;;;;;;;;4955031;29;20063;-96
2023/10/10 07:44:41;;;;;;;34.45;22.40;;;;;;;;;;4951702;29;20059;-95
2023/10/10 07:49:40;;;;;;;40.47;29.80;;;;;;;;;;4958760;29;20055;-95
2023/10/10 07:52:16;;;;;;;46.13;32.28;;;;;;;;;;4957699;29;20062;-95
2023/10/10 07:54:46;;;;;;;38.30;28.20;;;;;;;;;;4957984;29;20058;-93
2023/10/10 07:57:22;;;;;;;24.10;18.52;;;;;;;;;;4949258;29;20463;-94
2023/10/10 07:59:56;;;;;;;19.60;16.98;;;;;;;;;;4943498;29;20071;-94
2023/10/10 08:02:25;;;;;;;15.38;13.70;;;;;;;;;;4948469;29;20480;-95
2023/10/10 08:04:53;;;;;;;19.80;11.93;;;;;;;;;;4948888;29;20339;-93
2023/10/10 08:07:23;;;;;;;13.90;10.68;;;;;;;;;;4957062;29;20051;-93
2023/10/10 08:10:12;;;;;;;19.40;10.50;;;;;;;;;;4949192;29;20107;-93
2023/10/10 08:12:42;;;;;;;13.23;10.00;;;;;;;;;;4941957;29;20114;-93
2023/10/10 08:15:19;;;;;;;18.17;9.65;;;;;;;;;;4956853;29;20054;-94
2023/10/10 08:17:52;;;;;;;15.20;9.55;;;;;;;;;;4947626;28;20061;-95
2023/10/10 08:23:04;;;;;;;19.08;9.98;;;;;;;;;;4957181;29;20051;-93
2023/10/10 08:25:33;;;;;;;18.88;8.40;;;;;;;;;;4940914;29;20102;-93
2023/10/10 08:28:00;;;;;;;15.43;8.25;;;;;;;;;;4956946;29;20460;-93
2023/10/10 08:30:28;;;;;;;15.20;6.68;;;;;;;;;;4957750;29;20051;-93
2023/10/10 08:32:56;;;;;;;14.05;6.90;;;;;;;;;;4948227;29;20048;-92
2023/10/10 08:35:25;;;;;;;17.50;6.60;;;;;;;;;;4956946;29;20055;-90
2023/10/10 08:37:53;;;;;;;11.48;6.05;;;;;;;;;;4956898;29;20065;-90
2023/10/10 08:40:20;;;;;;;15.13;6.38;;;;;;;;;;4947880;29;20058;-91
2023/10/10 08:42:51;;;;;;;15.23;6.22;;;;;;;;;;4948161;29;20055;-90
2023/10/10 08:45:25;;;;;;;14.77;5.53;;;;;;;;;;4957094;29;20404;-89
2023/10/10 08:47:59;;;;;;;12.45;5.32;;;;;;;;;;4961869;28;20059;-89
2023/10/10 08:50:26;;;;;;;14.70;4.80;;;;;;;;;;4963296;28;20102;-89
2023/10/10 08:52:54;;;;;;;7.68;4.60;;;;;;;;;;4963541;28;20063;-88
2023/10/10 08:55:34;;;;;;;9.60;4.68;;;;;;;;;;4956648;29;20055;-89
2023/10/10 08:58:10;;;;;;;16.17;5.00;;;;;;;;;;4959638;28;20051;-88
2023/10/10 09:00:37;;;;;;;11.18;4.63;;;;;;;;;;4964164;28;20051;-90
2023/10/10 09:03:08;;;;;;;9.00;4.70;;;;;;;;;;4970692;28;20108;-87
2023/10/10 09:05:36;;;;;;;8.57;4.47;;;;;;;;;;4955833;28;20074;-88
2023/10/10 09:08:17;;;;;;;6.85;4.35;;;;;;;;;;4971179;28;20138;-89
2023/10/10 09:10:46;;;;;;;11.05;4.40;;;;;;;;;;4949915;29;20055;-87
2023/10/10 09:13:14;;;;;;;11.35;5.13;;;;;;;;;;4956399;28;20086;-88
2023/10/10 09:15:54;;;;;;;5.53;4.03;;;;;;;;;;4955477;29;20047;-89
2023/10/10 09:18:22;;;;;;;5.63;4.18;;;;;;;;;;4963028;28;20078;-88
2023/10/10 09:20:50;;;;;;;6.20;4.30;;;;;;;;;;4962885;28;20052;-89
2023/10/10 09:23:32;;;;;;;9.27;5.20;;;;;;;;;;4962795;28;20488;-89
2023/10/10 09:26:18;;;;;;;7.60;4.55;;;;;;;;;;4962691;28;20054;-88
2023/10/10 09:28:55;;;;;;;5.70;3.95;;;;;;;;;;4964633;28;20130;-88
2023/10/10 09:31:32;;;;;;;6.18;4.22;;;;;;;;;;4955756;28;20047;-88
2023/10/10 09:34:06;;;;;;;9.38;5.00;;;;;;;;;;4962696;28;20058;-90
2023/10/10 09:36:38;;;;;;;8.23;4.40;;;;;;;;;;4961998;28;20051;-89
2023/10/10 09:39:09;;;;;;;9.40;4.50;;;;;;;;;;4970537;28;20051;-90
2023/10/10 09:42:00;;;;;;;7.00;3.97;;;;;;;;;;4962501;28;20055;-88
2023/10/10 09:47:13;;;;;;;8.65;3.88;;;;;;;;;;4954992;29;20145;-91
2023/10/10 09:58:00;;;;;;;3.95;2.90;;;;;;;;;;4955479;29;20114;-90
2023/10/10 10:00:45;;;;;;;7.28;3.08;;;;;;;;;;4946509;29;20047;-89
2023/10/10 10:06:27;;;;;;;7.82;3.17;;;;;;;;;;4955205;29;20396;-90
2023/10/10 10:09:09;;;;;;;14.88;3.85;;;;;;;;;;4955322;29;20138;-89
2023/10/10 10:11:44;;;;;;;19.77;4.60;;;;;;;;;;4939080;29;20051;-91
2023/10/10 10:14:18;;;;;;;9.05;3.67;;;;;;;;;;4946185;29;20057;-90
2023/10/10 10:16:52;;;;;;;4.85;3.08;;;;;;;;;;4947010;29;20130;-92
2023/10/10 10:19:27;;;;;;;8.40;3.60;;;;;;;;;;4946579;29;20051;-94
2023/10/10 10:22:08;;;;;;;21.00;4.20;;;;;;;;;;4954210;29;20563;-91
2023/10/10 10:24:45;;;;;;;19.50;4.20;;;;;;;;;;4941149;29;20066;-92
2023/10/10 10:27:34;;;;;;;8.48;3.17;;;;;;;;;;4940816;29;20051;-92
2023/10/10 10:30:35;;;;;;;6.78;2.72;;;;;;;;;;4946260;29;20109;-92
2023/10/10 10:33:00;;;;;;;3.97;2.38;;;;;;;;;;4950009;29;20551;-92
2023/10/10 10:35:46;;;;;;;6.72;2.38;;;;;;;;;;4946246;29;20512;-92
2023/10/10 10:38:13;;;;;;;6.93;2.45;;;;;;;;;;4946026;29;20412;-92
2023/10/10 10:43:14;;;;;;;3.90;2.28;;;;;;;;;;4958346;29;20074;-91
2023/10/10 10:45:51;;;;;;;4.47;2.47;;;;;;;;;;4958812;29;20090;-91
2023/10/10 10:48:34;;;;;;;12.15;2.70;;;;;;;;;;4957801;29;20540;-92
2023/10/10 10:51:22;;;;;;;4.93;2.42;;;;;;;;;;4949641;29;20058;-92
2023/10/10 10:53:51;;;;;;;9.32;2.78;;;;;;;;;;4961832;29;20085;-96
2023/10/10 11:01:27;;;;;;;6.47;2.30;;;;;;;;;;4997155;28;20101;-87
2023/10/10 11:03:57;;;;;;;8.88;2.70;;;;;;;;;;4995865;28;20049;-89
2023/10/10 11:06:25;;;;;;;5.13;2.20;;;;;;;;;;4995969;28;20057;-89
2023/10/10 11:08:54;;;;;;;9.43;2.58;;;;;;;;;;4997265;28;20061;-88
2023/10/10 11:16:46;;;;;;;8.43;2.47;;;;;;;;;;4982234;28;20058;-88
2023/10/10 11:21:56;;;;;;;5.45;2.22;;;;;;;;;;4997361;28;20046;-89
2023/10/10 11:24:30;;;;;;;6.85;2.63;;;;;;;;;;4995999;28;20042;-89
2023/10/10 11:27:14;;;;;;;17.73;3.05;;;;;;;;;;4995629;28;20050;-88
2023/10/10 11:29:51;;;;;;;5.05;2.70;;;;;;;;;;4995719;28;20510;-88
2023/10/10 11:32:29;;;;;;;8.38;3.08;;;;;;;;;;4996031;28;20478;-89
2023/10/10 11:35:17;;;;;;;8.35;2.80;;;;;;;;;;4995707;28;20050;-87
2023/10/10 11:37:58;;;;;;;7.30;2.92;;;;;;;;;;4996301;28;20107;-88
2023/10/10 11:40:31;;;;;;;9.60;3.30;;;;;;;;;;4981423;28;20082;-87
2023/10/10 11:43:11;;;;;;;6.55;2.90;;;;;;;;;;4995202;28;20529;-88
2023/10/10 11:45:39;;;;;;;5.72;2.42;;;;;;;;;;4995317;28;20057;-89
2023/10/10 11:48:15;;;;;;;7.18;3.40;;;;;;;;;;4996308;28;20042;-87
2023/10/10 11:50:48;;;;;;;6.38;2.90;;;;;;;;;;4995779;28;20052;-86
2023/10/10 11:53:19;;;;;;;11.05;3.33;;;;;;;;;;4995096;28;20050;-88
2023/10/10 11:55:47;;;;;;;9.88;4.38;;;;;;;;;;4997818;28;20054;-87
2023/10/10 11:58:18;;;;;;;7.80;4.05;;;;;;;;;;5000701;28;20153;-87
2023/10/10 12:01:05;;;;;;;10.38;3.17;;;;;;;;;;5011154;28;20112;-87
2023/10/10 12:06:14;;;;;;;6.80;3.63;;;;;;;;;;4995920;28;20046;-88
2023/10/10 12:08:47;;;;;;;11.07;3.58;;;;;;;;;;4997506;28;20145;-85
2023/10/10 12:11:21;;;;;;;9.38;4.28;;;;;;;;;;4998009;28;20046;-84
2023/10/10 12:13:50;;;;;;;7.30;4.20;;;;;;;;;;4996369;28;20073;-88
2023/10/10 12:16:23;;;;;;;8.07;3.95;;;;;;;;;;4996460;28;20070;-88
2023/10/10 12:18:55;;;;;;;10.43;4.68;;;;;;;;;;4994067;28;20066;-88
2023/10/10 12:21:31;;;;;;;9.95;3.97;;;;;;;;;;4994720;28;20046;-89
2023/10/10 12:24:02;;;;;;;9.13;3.97;;;;;;;;;;4994758;28;20054;-88
2023/10/10 12:26:29;;;;;;;12.90;4.40;;;;;;;;;;4994801;28;20050;-87
2023/10/10 12:28:58;;;;;;;10.95;4.32;;;;;;;;;;4994568;28;20046;-89
2023/10/10 12:31:27;;;;;;;9.38;4.72;;;;;;;;;;4995833;28;20073;-89
2023/10/10 12:33:54;;;;;;;9.95;4.15;;;;;;;;;;4995812;28;20050;-88
2023/10/10 12:36:28;;;;;;;17.67;4.50;;;;;;;;;;4994110;28;20042;-89
2023/10/10 12:38:59;;;;;;;10.80;3.85;;;;;;;;;;4995358;28;20051;-86
2023/10/10 12:41:27;;;;;;;10.05;3.13;;;;;;;;;;4992699;28;20616;-86
2023/10/10 12:43:55;;;;;;;8.75;3.17;;;;;;;;;;4994880;28;20253;-88
2023/10/10 12:46:23;;;;;;;9.23;2.97;;;;;;;;;;4994516;28;20046;-89
2023/10/10 12:48:51;;;;;;;9.45;3.10;;;;;;;;;;4994959;28;20419;-86
2023/10/10 12:51:22;;;;;;;7.20;3.25;;;;;;;;;;4995201;28;20120;-89
2023/10/10 12:54:01;;;;;;;9.48;3.67;;;;;;;;;;4999990;28;20073;-86
2023/10/10 12:56:48;;;;;;;6.57;3.45;;;;;;;;;;5009095;28;20081;-87
2023/10/10 12:59:20;;;;;;;10.20;3.75;;;;;;;;;;5004815;28;20050;-84
2023/10/10 13:02:00;;;;;;;8.30;3.22;;;;;;;;;;4983397;28;20105;-88
2023/10/10 13:04:36;;;;;;;9.10;3.58;;;;;;;;;;5006502;28;20050;-88
2023/10/10 13:07:04;;;;;;;6.28;3.05;;;;;;;;;;5005328;28;20468;-88
2023/10/10 13:09:35;;;;;;;14.45;4.15;;;;;;;;;;5007238;28;20105;-88
2023/10/10 13:12:03;;;;;;;12.70;3.78;;;;;;;;;;4996679;28;20050;-86
2023/10/10 13:14:33;;;;;;;8.63;3.85;;;;;;;;;;4996936;28;20078;-88
2023/10/10 13:17:29;;;;;;;9.43;3.80;;;;;;;;;;4995287;28;20133;-89
2023/10/10 13:19:59;;;;;;;7.95;3.58;;;;;;;;;;4982598;28;20066;-86
2023/10/10 13:22:30;;;;;;;9.18;3.42;;;;;;;;;;4993844;28;20456;-88
2023/10/10 13:24:58;;;;;;;6.63;3.22;;;;;;;;;;4996557;28;20497;-88
2023/10/10 13:27:26;;;;;;;8.38;3.67;;;;;;;;;;4976869;28;20046;-88
2023/10/10 13:29:57;;;;;;;17.67;4.00;;;;;;;;;;4993264;28;20066;-88
2023/10/10 13:32:35;;;;;;;7.57;3.13;;;;;;;;;;4986920;28;20067;-89
2023/10/10 13:35:05;;;;;;;9.93;3.47;;;;;;;;;;4990145;28;20050;-88
2023/10/10 13:37:34;;;;;;;10.60;3.35;;;;;;;;;;4985962;28;20081;-85
2023/10/10 13:40:05;;;;;;;6.45;3.70;;;;;;;;;;4995077;28;20133;-88
2023/10/10 13:42:40;;;;;;;7.95;3.30;;;;;;;;;;4993442;28;20061;-88
2023/10/10 13:45:11;;;;;;;23.65;4.38;;;;;;;;;;4995299;28;20096;-86
2023/10/10 13:47:47;;;;;;;9.25;3.63;;;;;;;;;;4993367;28;20462;-87
2023/10/10 13:50:44;;;;;;;8.32;3.42;;;;;;;;;;4994260;28;20050;-88
2023/10/10 13:53:39;;;;;;;8.70;3.30;;;;;;;;;;4992924;28;20056;-88
2023/10/10 13:56:32;;;;;;;7.50;3.15;;;;;;;;;;4991929;28;20045;-90
2023/10/10 13:59:00;;;;;;;4.57;3.03;;;;;;;;;;4993320;28;20085;-90
2023/10/10 14:01:44;;;;;;;7.13;3.58;;;;;;;;;;4993808;28;20079;-89
2023/10/10 14:04:27;;;;;;;5.15;2.63;;;;;;;;;;4994200;28;20050;-88
2023/10/10 14:07:12;;;;;;;22.92;5.22;;;;;;;;;;4989311;28;20090;-88
2023/10/10 14:09:48;;;;;;;13.25;3.42;;;;;;;;;;4993041;28;20050;-86
2023/10/10 14:15:34;;;;;;;9.65;3.47;;;;;;;;;;4996320;28;20046;-89
2023/10/10 14:18:08;;;;;;;7.93;3.20;;;;;;;;;;4992819;28;20058;-88
2023/10/10 14:21:01;;;;;;;9.07;3.55;;;;;;;;;;4990506;28;20292;-88
2023/10/10 14:23:30;;;;;;;9.07;4.13;;;;;;;;;;4993108;28;20120;-86
2023/10/10 14:26:16;;;;;;;8.27;3.60;;;;;;;;;;4992661;28;20061;-87
2023/10/10 14:32:04;;;;;;;9.63;3.85;;;;;;;;;;4969411;28;20050;-87
2023/10/10 14:34:38;;;;;;;8.63;3.50;;;;;;;;;;4991840;28;20393;-87
2023/10/10 14:37:15;;;;;;;11.32;3.83;;;;;;;;;;4989427;28;20109;-88
2023/10/10 14:40:08;;;;;;;10.13;3.75;;;;;;;;;;4974857;28;20500;-85
2023/10/10 14:42:45;;;;;;;11.63;4.03;;;;;;;;;;4992306;28;20051;-88
2023/10/10 14:45:48;;;;;;;7.28;3.90;;;;;;;;;;4981003;28;20059;-88
2023/10/10 14:48:18;;;;;;;6.72;3.58;;;;;;;;;;4993583;28;20516;-87
2023/10/10 14:50:52;;;;;;;10.55;3.72;;;;;;;;;;4993575;28;20058;-87
2023/10/10 14:53:27;;;;;;;6.32;3.75;;;;;;;;;;4992620;28;20072;-86
2023/10/10 14:56:24;;;;;;;13.15;3.85;;;;;;;;;;4993595;28;20070;-88
2023/10/10 14:58:59;;;;;;;14.93;3.55;;;;;;;;;;4974218;28;20055;-89
2023/10/10 15:01:35;;;;;;;10.98;3.70;;;;;;;;;;4975540;28;20514;-89
2023/10/10 15:04:06;;;;;;;8.13;3.88;;;;;;;;;;4992980;28;20054;-89
2023/10/10 15:06:34;;;;;;;8.02;3.47;;;;;;;;;;4992355;28;20074;-89
2023/10/10 15:09:02;;;;;;;16.45;4.25;;;;;;;;;;4995036;28;20126;-86
2023/10/10 15:11:43;;;;;;;4.78;3.30;;;;;;;;;;4994314;28;20057;-88
2023/10/10 15:14:23;;;;;;;10.30;3.35;;;;;;;;;;5001772;28;20070;-88
2023/10/10 15:17:04;;;;;;;6.68;3.33;;;;;;;;;;5013793;28;20058;-86
2023/10/10 15:19:36;;;;;;;6.55;3.97;;;;;;;;;;5001866;28;20053;-89
2023/10/10 15:22:17;;;;;;;10.23;3.85;;;;;;;;;;4996611;28;20399;-88
2023/10/10 15:24:49;;;;;;;11.13;3.20;;;;;;;;;;4991955;28;20054;-89
2023/10/10 15:27:53;;;;;;;10.57;3.47;;;;;;;;;;4993758;28;20050;-88
2023/10/10 15:31:04;;;;;;;9.52;3.60;;;;;;;;;;4994920;28;20129;-89
2023/10/10 15:33:54;;;;;;;6.85;3.03;;;;;;;;;;4987401;28;20090;-88
2023/10/10 15:37:14;;;;;;;7.95;2.88;;;;;;;;;;4997080;28;20057;-88
2023/10/10 15:39:48;;;;;;;7.00;3.13;;;;;;;;;;4995832;28;20463;-88
2023/10/10 15:42:37;;;;;;;;;;;;;;;;;;;;;
2023/10/10 15:45:37;;;;;;;5.80;2.88;;;;;;;;;;4996605;28;20049;-87
2023/10/10 15:48:25;;;;;;;7.32;2.90;;;;;;;;;;4969719;28;20492;-88
2023/10/10 15:51:01;;;;;;;11.40;3.22;;;;;;;;;;4995076;28;20046;-89
2023/10/10 15:53:42;;;;;;;4.75;2.58;;;;;;;;;;4987831;28;20047;-88
2023/10/10 15:56:18;;;;;;;6.15;3.05;;;;;;;;;;4991900;28;20050;-88
2023/10/10 15:58:49;;;;;;;11.82;3.28;;;;;;;;;;4997117;28;20057;-90
2023/10/10 16:01:30;;;;;;;8.32;3.08;;;;;;;;;;4995379;28;20081;-88
2023/10/10 16:04:19;;;;;;;7.88;2.88;;;;;;;;;;4994756;28;20085;-88
2023/10/10 16:06:47;;;;;;;5.90;2.78;;;;;;;;;;4996981;28;20058;-88
2023/10/10 16:09:37;;;;;;;12.23;3.22;;;;;;;;;;4996170;28;20046;-88
2023/10/10 16:12:07;;;;;;;7.25;3.40;;;;;;;;;;4996412;28;20054;-88
2023/10/10 16:14:36;;;;;;;7.32;2.97;;;;;;;;;;4994961;28;20058;-88
2023/10/10 16:17:04;;;;;;;29.38;4.03;;;;;;;;;;4994809;28;20054;-87
2023/10/10 16:19:42;;;;;;;16.95;3.58;;;;;;;;;;4994570;28;20190;-87
2023/10/10 16:22:17;;;;;;;18.60;3.35;;;;;;;;;;4994521;28;20061;-87
2023/10/10 16:24:52;;;;;;;42.38;5.70;;;;;;;;;;4994427;28;20049;-88
2023/10/10 16:27:21;;;;;;;28.98;4.43;;;;;;;;;;4994482;28;20113;-88
2023/10/10 16:29:59;;;;;;;25.35;4.63;;;;;;;;;;4994128;28;20054;-87
2023/10/10 16:32:29;;;;;;;11.30;3.33;;;;;;;;;;4993978;28;20073;-87
2023/10/10 16:35:01;;;;;;;12.82;3.67;;;;;;;;;;4994020;28;20495;-89
2023/10/10 16:37:33;;;;;;;12.77;3.42;;;;;;;;;;4993940;28;20072;-89
2023/10/10 16:40:02;;;;;;;8.60;3.22;;;;;;;;;;4993559;28;20447;-87
2023/10/10 16:42:32;;;;;;;13.05;3.97;;;;;;;;;;4994331;28;20073;-88
2023/10/10 16:45:02;;;;;;;7.40;3.65;;;;;;;;;;4993605;28;20050;-88
2023/10/10 16:47:29;;;;;;;10.35;3.65;;;;;;;;;;4993999;28;20070;-89
2023/10/10 16:50:08;;;;;;;13.63;3.53;;;;;;;;;;4994319;28;20113;-87
2023/10/10 16:52:41;;;;;;;20.75;4.43;;;;;;;;;;4994007;28;20074;-88
2023/10/10 16:58:16;;;;;;;1.70;0.52;;;;;;;;;;4935574;29;20106;-88
2023/10/10 17:00:48;;;;;;;24.33;5.78;;;;;;;;;;4951724;29;20051;-88
2023/10/10 17:03:22;;;;;;;22.20;5.13;;;;;;;;;;4949541;29;20052;-88
2023/10/10 17:05:52;;;;;;;19.33;5.55;;;;;;;;;;4951487;29;20047;-88
2023/10/10 17:08:20;;;;;;;32.70;6.53;;;;;;;;;;4951762;29;20528;-88
2023/10/10 17:10:50;;;;;;;29.67;5.95;;;;;;;;;;4936985;29;20592;-88
2023/10/10 17:13:19;;;;;;;25.17;6.15;;;;;;;;;;4952026;29;20059;-89
2023/10/10 17:15:48;;;;;;;30.02;6.70;;;;;;;;;;4929572;28;20051;-88
2023/10/10 17:18:20;;;;;;;28.10;7.80;;;;;;;;;;4952352;29;20058;-88
2023/10/10 17:20:56;;;;;;;491.27;70.90;;;;;;;;;;4951448;29;20123;-88
2023/10/10 17:23:24;;;;;;;59.13;9.63;;;;;;;;;;4951530;29;20083;-88
2023/10/10 17:25:53;;;;;;;31.83;8.65;;;;;;;;;;4936473;29;20058;-88
2023/10/10 17:28:20;;;;;;;26.65;8.20;;;;;;;;;;4951375;29;20122;-88
2023/10/10 17:30:48;;;;;;;28.38;7.45;;;;;;;;;;4936185;29;20051;-88
2023/10/10 17:33:15;;;;;;;27.95;7.20;;;;;;;;;;4951540;29;20147;-88
2023/10/10 17:35:42;;;;;;;17.52;5.55;;;;;;;;;;4951465;29;20048;-88
2023/10/10 17:38:09;;;;;;;18.90;5.28;;;;;;;;;;4936451;29;20048;-87
2023/10/10 17:40:39;;;;;;;18.33;5.20;;;;;;;;;;4951048;29;20405;-88
2023/10/10 17:43:09;;;;;;;26.67;6.13;;;;;;;;;;4947965;29;20056;-88
2023/10/10 17:45:40;;;;;;;29.90;6.43;;;;;;;;;;4944336;29;20047;-88
2023/10/10 17:48:08;;;;;;;19.92;6.15;;;;;;;;;;4951038;29;20050;-87
2023/10/10 17:50:38;;;;;;;20.50;6.70;;;;;;;;;;4946849;28;20052;-88
2023/10/10 17:53:11;;;;;;;20.13;6.25;;;;;;;;;;4947652;29;20135;-90
2023/10/10 17:55:42;;;;;;;16.63;6.47;;;;;;;;;;4951449;29;20130;-88
2023/10/10 17:58:10;;;;;;;15.18;5.53;;;;;;;;;;4951031;29;20066;-88
2023/10/10 18:00:37;;;;;;;9.52;5.30;;;;;;;;;;4950900;29;20063;-87
2023/10/10 18:03:07;;;;;;;8.18;4.20;;;;;;;;;;4936189;29;20052;-87
2023/10/10 18:05:39;;;;;;;7.10;4.13;;;;;;;;;;4943102;29;20428;-86
2023/10/10 18:08:06;;;;;;;7.82;3.55;;;;;;;;;;4950738;28;20220;-87
2023/10/10 18:10:37;;;;;;;7.35;3.88;;;;;;;;;;4950958;28;20083;-88
2023/10/10 18:13:05;;;;;;;15.90;4.43;;;;;;;;;;4950814;29;20166;-87
2023/10/10 18:15:32;;;;;;;20.05;4.43;;;;;;;;;;4935703;29;20095;-87
2023/10/10 18:17:59;;;;;;;28.58;5.80;;;;;;;;;;4935470;29;20079;-86
2023/10/10 18:20:29;;;;;;;16.25;5.15;;;;;;;;;;4948387;29;20143;-87
2023/10/10 18:22:57;;;;;;;12.95;4.90;;;;;;;;;;4949959;29;20052;-88
2023/10/10 18:25:25;;;;;;;15.73;5.30;;;;;;;;;;4949798;29;20179;-89
2023/10/10 18:27:53;;;;;;;16.02;5.18;;;;;;;;;;4935294;29;20051;-88
2023/10/10 18:30:20;;;;;;;10.27;5.15;;;;;;;;;;4949890;29;20082;-87
2023/10/10 18:32:51;;;;;;;7.47;4.15;;;;;;;;;;4949370;29;20110;-88
2023/10/10 18:35:19;;;;;;;11.52;4.55;;;;;;;;;;4949653;29;20115;-88